createdAt,value
2023-09-28T00:00:28.396Z,98629.00
2023-09-28T00:02:55.671Z,98635.00
2023-09-28T00:05:22.534Z,98617.00
2023-09-28T00:07:52.993Z,98620.00
2023-09-28T00:10:19.579Z,98623.00
2023-09-28T00:12:50.940Z,98621.00
2023-09-28T00:15:18.201Z,98638.00
2023-09-28T00:17:48.842Z,98633.00
2023-09-28T00:20:21.258Z,98627.00
2023-09-28T00:22:50.561Z,98645.00
2023-09-28T00:25:18.027Z,98632.00
2023-09-28T00:27:46.399Z,98629.00
2023-09-28T00:30:14.909Z,98639.00
2023-09-28T00:32:43.265Z,98625.00
2023-09-28T00:35:10.543Z,98628.00
2023-09-28T00:37:37.329Z,98627.00
2023-09-28T00:40:29.122Z,98622.00
2023-09-28T00:42:57.336Z,98626.00
2023-09-28T00:45:25.771Z,98620.00
2023-09-28T00:47:55.989Z,98617.00
2023-09-28T00:50:23.202Z,98622.00
2023-09-28T00:52:54.133Z,98620.00
2023-09-28T00:55:21.925Z,98619.00
2023-09-28T00:57:49.102Z,98628.00
2023-09-28T01:00:20.061Z,98628.00
2023-09-28T01:02:52.584Z,98632.00
2023-09-28T01:05:20.413Z,98643.00
2023-09-28T01:07:47.684Z,98643.00
2023-09-28T01:10:16.007Z,98644.00
2023-09-28T01:12:42.573Z,98641.00
2023-09-28T01:15:12.332Z,98646.00
2023-09-28T01:17:40.734Z,98640.00
2023-09-28T01:20:18.151Z,98623.00
2023-09-28T01:22:50.574Z,98622.00
2023-09-28T01:25:20.109Z,98632.00
2023-09-28T01:27:47.684Z,98623.00
2023-09-28T01:30:15.259Z,98630.00
2023-09-28T01:32:43.209Z,98640.00
2023-09-28T01:35:12.339Z,98641.00
2023-09-28T01:38:07.373Z,98641.00
2023-09-28T01:40:34.065Z,98637.00
2023-09-28T01:43:00.653Z,98635.00
2023-09-28T01:45:27.192Z,98639.00
2023-09-28T01:47:53.740Z,98639.00
2023-09-28T01:50:20.308Z,98638.00
2023-09-28T01:52:47.078Z,98634.00
2023-09-28T01:55:13.921Z,98635.00
2023-09-28T01:57:42.355Z,98639.00
2023-09-28T02:00:21.068Z,98642.00
2023-09-28T02:02:48.966Z,98647.00
2023-09-28T02:05:20.019Z,98640.00
2023-09-28T02:07:47.111Z,98649.00
2023-09-28T02:10:14.037Z,98654.00
2023-09-28T02:12:41.696Z,98649.00
2023-09-28T02:15:10.629Z,98657.00
2023-09-28T02:17:38.177Z,98650.00
2023-09-28T02:20:11.767Z,98659.00
2023-09-28T02:22:44.597Z,98662.00
2023-09-28T02:25:19.342Z,98652.00
2023-09-28T02:27:47.585Z,98660.00
2023-09-28T02:30:18.211Z,98656.00
2023-09-28T02:32:45.502Z,98662.00
2023-09-28T02:35:15.254Z,98658.00
2023-09-28T02:37:44.048Z,98654.00
2023-09-28T02:40:11.882Z,98660.00
2023-09-28T02:42:38.651Z,98657.00
2023-09-28T02:45:12.337Z,98657.00
2023-09-28T02:47:44.490Z,98649.00
2023-09-28T02:50:12.716Z,98654.00
2023-09-28T02:52:41.982Z,98656.00
2023-09-28T02:55:10.271Z,98659.00
2023-09-28T02:57:37.214Z,98661.00
2023-09-28T03:00:24.460Z,98659.00
2023-09-28T03:02:53.076Z,98658.00
2023-09-28T03:05:24.219Z,98661.00
2023-09-28T03:07:51.946Z,98659.00
2023-09-28T03:10:19.043Z,98655.00
2023-09-28T03:12:48.645Z,98663.00
2023-09-28T03:15:15.807Z,98657.00
2023-09-28T03:17:43.496Z,98654.00
2023-09-28T03:20:15.217Z,98646.00
2023-09-28T03:22:44.634Z,98648.00
2023-09-28T03:25:17.655Z,98655.00
2023-09-28T03:27:46.496Z,98653.00
2023-09-28T03:30:14.968Z,98652.00
2023-09-28T03:32:42.340Z,98646.00
2023-09-28T03:35:13.345Z,98644.00
2023-09-28T03:37:44.389Z,98649.00
2023-09-28T03:40:13.257Z,98652.00
2023-09-28T03:42:49.935Z,98655.00
2023-09-28T03:45:21.373Z,98646.00
2023-09-28T03:47:52.517Z,98647.00
2023-09-28T03:50:23.908Z,98637.00
2023-09-28T03:52:51.832Z,98650.00
2023-09-28T03:55:20.745Z,98657.00
2023-09-28T03:57:48.041Z,98650.00
2023-09-28T04:00:17.038Z,98651.00
2023-09-28T04:02:48.449Z,98650.00
2023-09-28T04:05:16.452Z,98651.00
2023-09-28T04:07:44.386Z,98651.00
2023-09-28T04:10:12.568Z,98654.00
2023-09-28T04:12:39.232Z,98644.00
2023-09-28T04:15:06.452Z,98658.00
2023-09-28T04:17:35.615Z,98646.00
2023-09-28T04:20:05.923Z,98646.00
2023-09-28T04:22:33.187Z,98642.00
2023-09-28T04:24:59.800Z,98639.00
2023-09-28T04:27:26.965Z,98652.00
2023-09-28T04:29:53.611Z,98661.00
2023-09-28T04:32:20.214Z,98652.00
2023-09-28T04:34:47.002Z,98666.00
2023-09-28T04:37:13.656Z,98660.00
2023-09-28T04:39:40.257Z,98658.00
2023-09-28T04:42:06.810Z,98664.00
2023-09-28T04:44:33.321Z,98662.00
2023-09-28T04:47:00.088Z,98663.00
2023-09-28T04:49:26.803Z,98671.00
2023-09-28T04:51:53.474Z,98669.00
2023-09-28T04:54:20.132Z,98678.00
2023-09-28T04:56:47.102Z,98679.00
2023-09-28T04:59:13.907Z,98693.00
2023-09-28T05:01:40.526Z,98690.00
2023-09-28T05:04:12.078Z,98695.00
2023-09-28T05:06:41.401Z,98689.00
2023-09-28T05:09:08.540Z,98687.00
2023-09-28T05:11:35.943Z,98692.00
2023-09-28T05:14:02.727Z,98678.00
2023-09-28T05:16:30.047Z,98691.00
2023-09-28T05:18:56.829Z,98681.00
2023-09-28T05:21:24.640Z,98700.00
2023-09-28T05:23:51.541Z,98695.00
2023-09-28T05:26:18.581Z,98687.00
2023-09-28T05:28:45.588Z,98691.00
2023-09-28T05:31:12.255Z,98697.00
2023-09-28T05:33:39.261Z,98703.00
2023-09-28T05:36:06.304Z,98714.00
2023-09-28T05:38:32.825Z,98710.00
2023-09-28T05:40:59.396Z,98694.00
2023-09-28T05:43:26.077Z,98694.00
2023-09-28T05:45:52.735Z,98696.00
2023-09-28T05:48:19.391Z,98706.00
2023-09-28T05:50:46.487Z,98715.00
2023-09-28T05:53:13.189Z,98715.00
2023-09-28T05:55:39.818Z,98715.00
2023-09-28T05:58:06.421Z,98731.00
2023-09-28T06:00:32.984Z,98733.00
2023-09-28T06:02:59.798Z,98747.00
2023-09-28T06:05:26.501Z,98738.00
2023-09-28T06:07:55.167Z,98739.00
2023-09-28T06:10:22.768Z,98740.00
2023-09-28T06:12:49.458Z,98733.00
2023-09-28T06:15:16.247Z,98738.00
2023-09-28T06:17:43.385Z,98730.00
2023-09-28T06:20:10.700Z,98737.00
2023-09-28T06:22:37.511Z,98731.00
2023-09-28T06:25:04.504Z,98741.00
2023-09-28T06:27:31.465Z,98759.00
2023-09-28T06:29:58.246Z,98767.00
2023-09-28T06:32:26.931Z,98769.00
2023-09-28T06:34:53.713Z,98761.00
2023-09-28T06:37:20.277Z,98770.00
2023-09-28T06:39:46.845Z,98764.00
2023-09-28T06:44:48.151Z,98777.00
2023-09-28T06:47:14.760Z,98776.00
2023-09-28T06:49:41.345Z,98780.00
2023-09-28T06:52:07.947Z,98779.00
2023-09-28T06:54:34.738Z,98788.00
2023-09-28T06:57:04.069Z,98787.00
2023-09-28T06:59:30.668Z,98787.00
2023-09-28T07:01:57.265Z,98791.00
2023-09-28T07:04:23.833Z,98781.00
2023-09-28T07:06:50.410Z,98781.00
2023-09-28T07:09:17.010Z,98786.00
2023-09-28T07:11:43.668Z,98782.00
2023-09-28T07:14:10.283Z,98785.00
2023-09-28T07:16:37.942Z,98777.00
2023-09-28T07:19:06.165Z,98775.00
2023-09-28T07:21:33.017Z,98772.00
2023-09-28T07:24:08.865Z,98777.00
2023-09-28T07:26:39.304Z,98780.00
2023-09-28T07:29:05.874Z,98771.00
2023-09-28T07:31:32.435Z,98795.00
2023-09-28T07:33:59.153Z,98796.00
2023-09-28T07:36:25.878Z,98798.00
2023-09-28T07:38:52.598Z,98800.00
2023-09-28T07:41:19.396Z,98810.00
2023-09-28T07:43:45.964Z,98803.00
2023-09-28T07:46:14.568Z,98813.00
2023-09-28T07:48:41.509Z,98802.00
2023-09-28T07:51:08.046Z,98813.00
2023-09-28T07:53:34.562Z,98811.00
2023-09-28T07:56:01.280Z,98813.00
2023-09-28T07:58:29.248Z,98813.00
2023-09-28T08:00:57.008Z,98815.00
2023-09-28T08:03:23.960Z,98814.00
2023-09-28T08:05:52.286Z,98811.00
2023-09-28T08:08:20.154Z,98817.00
2023-09-28T08:10:46.995Z,98808.00
2023-09-28T08:13:14.546Z,98815.00
2023-09-28T08:15:42.337Z,98820.00
2023-09-28T08:18:09.914Z,98822.00
2023-09-28T08:20:36.839Z,98826.00
2023-09-28T08:23:06.010Z,98832.00
2023-09-28T08:25:33.875Z,98824.00
2023-09-28T08:28:00.662Z,98825.00
2023-09-28T08:30:27.354Z,98831.00
2023-09-28T08:32:54.597Z,98824.00
2023-09-28T08:35:21.802Z,98829.00
2023-09-28T08:37:48.748Z,98832.00
2023-09-28T08:40:15.574Z,98835.00
2023-09-28T08:42:47.396Z,98844.00
2023-09-28T08:45:15.452Z,98853.00
2023-09-28T08:47:49.422Z,98851.00
2023-09-28T08:50:23.434Z,98853.00
2023-09-28T08:52:55.449Z,98851.00
2023-09-28T08:55:22.668Z,98850.00
2023-09-28T08:57:49.455Z,98849.00
2023-09-28T09:00:16.837Z,98843.00
2023-09-28T09:02:44.709Z,98845.00
2023-09-28T09:05:14.853Z,98851.00
2023-09-28T09:07:45.075Z,98849.00
2023-09-28T09:10:14.063Z,98847.00
2023-09-28T09:12:40.722Z,98850.00
2023-09-28T09:15:08.084Z,98840.00
2023-09-28T09:17:36.099Z,98832.00
2023-09-28T09:20:06.369Z,98832.00
2023-09-28T09:22:41.357Z,98832.00
2023-09-28T09:25:16.445Z,98825.00
2023-09-28T09:27:44.359Z,98827.00
2023-09-28T09:30:16.068Z,98825.00
2023-09-28T09:32:44.043Z,98826.00
2023-09-28T09:35:11.973Z,98820.00
2023-09-28T09:37:42.826Z,98823.00
2023-09-28T09:40:13.931Z,98821.00
2023-09-28T09:42:43.046Z,98824.00
2023-09-28T09:45:12.504Z,98822.00
2023-09-28T09:47:49.683Z,98823.00
2023-09-28T09:50:18.832Z,98822.00
2023-09-28T09:52:46.075Z,98824.00
2023-09-28T09:55:13.283Z,98824.00
2023-09-28T09:57:42.844Z,98826.00
2023-09-28T10:00:10.448Z,98826.00
2023-09-28T10:02:40.607Z,98829.00
2023-09-28T10:05:14.286Z,98832.00
2023-09-28T10:10:13.528Z,98838.00
2023-09-28T10:12:41.841Z,98848.00
2023-09-28T10:15:09.950Z,98842.00
2023-09-28T10:17:36.714Z,98843.00
2023-09-28T10:20:05.604Z,98846.00
2023-09-28T10:22:32.890Z,98840.00
2023-09-28T10:24:59.504Z,98838.00
2023-09-28T10:27:26.104Z,98838.00
2023-09-28T10:30:22.511Z,98833.00
2023-09-28T10:32:53.187Z,98837.00
2023-09-28T10:35:31.064Z,98841.00
2023-09-28T10:38:21.183Z,98835.00
2023-09-28T10:41:04.016Z,98841.00
2023-09-28T10:43:33.825Z,98840.00
2023-09-28T10:46:05.092Z,98852.00
2023-09-28T10:48:46.494Z,98856.00
2023-09-28T10:51:15.072Z,98855.00
2023-09-28T10:53:42.658Z,98852.00
2023-09-28T10:56:10.304Z,98851.00
2023-09-28T10:58:37.739Z,98842.00
2023-09-28T11:01:08.194Z,98837.00
2023-09-28T11:03:36.469Z,98836.00
2023-09-28T11:06:05.179Z,98834.00
2023-09-28T11:08:33.122Z,98831.00
2023-09-28T11:11:02.760Z,98828.00
2023-09-28T11:13:32.603Z,98819.00
2023-09-28T11:16:00.432Z,98830.00
2023-09-28T11:18:28.209Z,98825.00
2023-09-28T11:20:59.355Z,98822.00
2023-09-28T11:23:26.094Z,98828.00
2023-09-28T11:25:53.934Z,98825.00
2023-09-28T11:28:22.300Z,98830.00
2023-09-28T11:31:13.109Z,98820.00
2023-09-28T11:33:44.621Z,98825.00
2023-09-28T11:36:16.801Z,98818.00
2023-09-28T11:38:44.408Z,98822.00
2023-09-28T11:41:11.255Z,98814.00
2023-09-28T11:43:55.264Z,98820.00
2023-09-28T11:46:26.562Z,98818.00
2023-09-28T11:49:15.555Z,98816.00
2023-09-28T11:51:42.636Z,98807.00
2023-09-28T11:54:13.578Z,98812.00
2023-09-28T11:56:45.728Z,98802.00
2023-09-28T11:59:18.448Z,98800.00
2023-09-28T12:01:47.173Z,98797.00
2023-09-28T12:04:14.530Z,98792.00
2023-09-28T12:06:41.800Z,98802.00
2023-09-28T12:09:09.770Z,98796.00
2023-09-28T12:11:41.006Z,98782.00
2023-09-28T12:14:08.987Z,98782.00
2023-09-28T12:16:35.832Z,98775.00
2023-09-28T12:19:02.487Z,98782.00
2023-09-28T12:21:28.997Z,98781.00
2023-09-28T12:23:57.403Z,98784.00
2023-09-28T12:26:24.193Z,98783.00
2023-09-28T12:28:50.783Z,98777.00
2023-09-28T12:31:18.682Z,98777.00
2023-09-28T12:33:47.157Z,98770.00
2023-09-28T12:36:14.364Z,98768.00
2023-09-28T12:38:42.373Z,98767.00
2023-09-28T12:41:10.368Z,98770.00
2023-09-28T12:43:37.692Z,98774.00
2023-09-28T12:46:05.540Z,98765.00
2023-09-28T12:48:32.208Z,98768.00
2023-09-28T12:50:59.061Z,98771.00
2023-09-28T12:53:27.297Z,98764.00
2023-09-28T12:55:55.051Z,98769.00
2023-09-28T12:58:21.825Z,98769.00
2023-09-28T13:00:48.586Z,98776.00
2023-09-28T13:03:15.319Z,98770.00
2023-09-28T13:05:42.426Z,98764.00
2023-09-28T13:08:16.492Z,98768.00
2023-09-28T13:10:43.889Z,98762.00
2023-09-28T13:13:10.592Z,98754.00
2023-09-28T13:15:37.217Z,98743.00
2023-09-28T13:18:08.535Z,98756.00
2023-09-28T13:20:40.134Z,98752.00
2023-09-28T13:23:07.802Z,98747.00
2023-09-28T13:25:34.851Z,98740.00
2023-09-28T13:28:01.910Z,98741.00
2023-09-28T13:30:30.616Z,98734.00
2023-09-28T13:33:00.726Z,98732.00
2023-09-28T13:35:27.748Z,98731.00
2023-09-28T13:37:54.360Z,98730.00
2023-09-28T13:40:29.484Z,98741.00
2023-09-28T13:42:58.010Z,98735.00
2023-09-28T13:45:24.868Z,98742.00
2023-09-28T13:47:51.600Z,98741.00
2023-09-28T13:50:18.446Z,98739.00
2023-09-28T13:52:46.689Z,98745.00
2023-09-28T13:55:17.324Z,98747.00
2023-09-28T13:57:48.317Z,98754.00
2023-09-28T14:00:23.134Z,98761.00
2023-09-28T14:02:49.900Z,98757.00
2023-09-28T14:05:16.834Z,98758.00
2023-09-28T14:07:43.522Z,98753.00
2023-09-28T14:10:10.359Z,98754.00
2023-09-28T14:12:37.010Z,98757.00
2023-09-28T14:15:05.546Z,98758.00
2023-09-28T14:17:38.819Z,98752.00
2023-09-28T14:20:08.429Z,98745.00
2023-09-28T14:22:35.080Z,98741.00
2023-09-28T14:25:01.951Z,98744.00
2023-09-28T14:27:29.415Z,98740.00
2023-09-28T14:29:55.955Z,98741.00
2023-09-28T14:32:22.526Z,98731.00
2023-09-28T14:34:49.228Z,98727.00
2023-09-28T14:37:15.791Z,98730.00
2023-09-28T14:39:42.626Z,98721.00
2023-09-28T14:42:09.383Z,98721.00
2023-09-28T14:44:36.157Z,98712.00
2023-09-28T14:47:03.011Z,98717.00
2023-09-28T14:49:29.576Z,98717.00
2023-09-28T14:51:56.104Z,98712.00
2023-09-28T14:54:22.673Z,98712.00
2023-09-28T14:56:49.817Z,98709.00
2023-09-28T14:59:16.383Z,98714.00
2023-09-28T15:01:42.940Z,98710.00
2023-09-28T15:04:09.727Z,98710.00
2023-09-28T15:06:36.829Z,98706.00
2023-09-28T15:09:04.025Z,98713.00
2023-09-28T15:11:30.770Z,98709.00
2023-09-28T15:13:57.441Z,98703.00
2023-09-28T15:16:24.470Z,98712.00
2023-09-28T15:18:51.059Z,98708.00
2023-09-28T15:21:17.644Z,98714.00
2023-09-28T15:23:44.234Z,98714.00
2023-09-28T15:26:10.932Z,98715.00
2023-09-28T15:28:39.468Z,98715.00
2023-09-28T15:31:06.771Z,98721.00
2023-09-28T15:33:33.486Z,98721.00
2023-09-28T15:36:00.238Z,98725.00
2023-09-28T15:38:26.933Z,98722.00
2023-09-28T15:40:53.723Z,98718.00
2023-09-28T15:43:20.992Z,98721.00
2023-09-28T15:45:49.318Z,98715.00
2023-09-28T15:48:15.933Z,98720.00
2023-09-28T15:50:42.616Z,98722.00
2023-09-28T15:53:09.205Z,98718.00
2023-09-28T15:55:35.838Z,98721.00
2023-09-28T15:58:02.496Z,98723.00
2023-09-28T16:00:36.820Z,98724.00
2023-09-28T16:03:04.537Z,98718.00
2023-09-28T16:05:31.329Z,98720.00
2023-09-28T16:07:59.641Z,98714.00
2023-09-28T16:10:26.684Z,98716.00
2023-09-28T16:12:54.060Z,98715.00
2023-09-28T16:15:20.820Z,98712.00
2023-09-28T16:17:47.571Z,98722.00
2023-09-28T16:20:14.459Z,98725.00
2023-09-28T16:22:41.206Z,98719.00
2023-09-28T16:25:08.361Z,98718.00
2023-09-28T16:27:35.006Z,98717.00
2023-09-28T16:30:01.542Z,98717.00
2023-09-28T16:32:28.819Z,98718.00
2023-09-28T16:34:55.538Z,98711.00
2023-09-28T16:37:22.226Z,98712.00
2023-09-28T16:39:48.784Z,98709.00
2023-09-28T16:42:15.383Z,98712.00
2023-09-28T16:44:41.981Z,98710.00
2023-09-28T16:47:08.660Z,98720.00
2023-09-28T16:49:35.255Z,98724.00
2023-09-28T16:52:02.134Z,98726.00
2023-09-28T16:54:28.724Z,98722.00
2023-09-28T16:56:55.333Z,98727.00
2023-09-28T16:59:21.997Z,98732.00
2023-09-28T17:01:48.871Z,98733.00
2023-09-28T17:04:15.524Z,98737.00
2023-09-28T17:06:42.647Z,98736.00
2023-09-28T17:09:09.192Z,98743.00
2023-09-28T17:11:35.776Z,98740.00
2023-09-28T17:14:02.465Z,98747.00
2023-09-28T17:16:29.468Z,98753.00
2023-09-28T17:18:56.552Z,98754.00
2023-09-28T17:21:23.175Z,98750.00
2023-09-28T17:23:50.004Z,98747.00
2023-09-28T17:26:16.626Z,98748.00
2023-09-28T17:28:44.165Z,98756.00
2023-09-28T17:31:10.974Z,98751.00
2023-09-28T17:33:37.585Z,98748.00
2023-09-28T17:36:04.257Z,98754.00
2023-09-28T17:38:30.930Z,98756.00
2023-09-28T17:40:58.266Z,98752.00
2023-09-28T17:43:24.857Z,98755.00
2023-09-28T17:45:52.023Z,98749.00
2023-09-28T17:48:18.829Z,98757.00
2023-09-28T17:50:45.687Z,98748.00
2023-09-28T17:53:12.980Z,98750.00
2023-09-28T17:55:40.334Z,98751.00
2023-09-28T17:58:06.874Z,98753.00
2023-09-28T18:00:33.430Z,98756.00
2023-09-28T18:03:02.334Z,98762.00
2023-09-28T18:05:31.324Z,98760.00
2023-09-28T18:07:58.329Z,98763.00
2023-09-28T18:10:25.214Z,98773.00
2023-09-28T18:12:51.900Z,98770.00
2023-09-28T18:15:20.744Z,98782.00
2023-09-28T18:17:48.227Z,98779.00
2023-09-28T18:20:15.445Z,98791.00
2023-09-28T18:22:42.052Z,98780.00
2023-09-28T18:25:10.411Z,98783.00
2023-09-28T18:27:38.621Z,98782.00
2023-09-28T18:30:09.607Z,98777.00
2023-09-28T18:32:37.356Z,98787.00
2023-09-28T18:35:04.543Z,98786.00
2023-09-28T18:37:32.843Z,98786.00
2023-09-28T18:40:00.509Z,98782.00
2023-09-28T18:42:28.289Z,98782.00
2023-09-28T18:44:54.894Z,98782.00
2023-09-28T18:47:21.590Z,98783.00
2023-09-28T18:49:49.025Z,98785.00
2023-09-28T18:52:15.777Z,98783.00
2023-09-28T18:54:43.066Z,98802.00
2023-09-28T18:57:09.694Z,98798.00
2023-09-28T18:59:36.278Z,98794.00
2023-09-28T19:02:03.812Z,98794.00
2023-09-28T19:04:32.271Z,98805.00
2023-09-28T19:07:01.220Z,98801.00
2023-09-28T19:09:28.068Z,98799.00
2023-09-28T19:11:54.692Z,98808.00
2023-09-28T19:14:24.759Z,98801.00
2023-09-28T19:16:53.424Z,98808.00
2023-09-28T19:19:20.338Z,98815.00
2023-09-28T19:21:46.882Z,98811.00
2023-09-28T19:24:13.485Z,98810.00
2023-09-28T19:26:40.514Z,98816.00
2023-09-28T19:29:09.782Z,98807.00
2023-09-28T19:31:37.349Z,98807.00
2023-09-28T19:34:08.368Z,98812.00
2023-09-28T19:36:36.211Z,98809.00
2023-09-28T19:39:03.717Z,98812.00
2023-09-28T19:41:30.466Z,98810.00
2023-09-28T19:43:59.246Z,98809.00
2023-09-28T19:46:25.929Z,98803.00
2023-09-28T19:48:53.348Z,98811.00
2023-09-28T19:51:22.780Z,98810.00
2023-09-28T19:53:49.934Z,98819.00
2023-09-28T19:56:27.092Z,98817.00
2023-09-28T19:58:54.300Z,98820.00
2023-09-28T20:01:21.853Z,98821.00
2023-09-28T20:03:48.979Z,98823.00
2023-09-28T20:06:16.291Z,98820.00
2023-09-28T20:08:42.994Z,98819.00
2023-09-28T20:11:09.897Z,98823.00
2023-09-28T20:13:37.124Z,98819.00
2023-09-28T20:16:05.796Z,98816.00
2023-09-28T20:18:32.853Z,98808.00
2023-09-28T20:21:04.305Z,98811.00
2023-09-28T20:23:31.188Z,98814.00
2023-09-28T20:25:57.808Z,98813.00
2023-09-28T20:28:24.727Z,98808.00
2023-09-28T20:30:51.729Z,98809.00
2023-09-28T20:33:18.598Z,98817.00
2023-09-28T20:35:46.246Z,98821.00
2023-09-28T20:38:13.641Z,98826.00
2023-09-28T20:40:40.353Z,98825.00
2023-09-28T20:43:10.092Z,98823.00
2023-09-28T20:45:40.627Z,98818.00
2023-09-28T20:48:08.141Z,98817.00
2023-09-28T20:50:35.517Z,98817.00
2023-09-28T20:53:02.902Z,98816.00
2023-09-28T20:55:30.541Z,98809.00
2023-09-28T20:57:57.193Z,98809.00
2023-09-28T21:00:24.004Z,98802.00
2023-09-28T21:02:50.724Z,98802.00
2023-09-28T21:05:17.488Z,98808.00
2023-09-28T21:07:46.352Z,98805.00
2023-09-28T21:10:14.121Z,98806.00
2023-09-28T21:12:42.158Z,98801.00
2023-09-28T21:15:11.881Z,98800.00
2023-09-28T21:17:39.995Z,98798.00
2023-09-28T21:20:08.401Z,98801.00
2023-09-28T21:22:35.101Z,98798.00
2023-09-28T21:25:01.773Z,98798.00
2023-09-28T21:27:28.275Z,98799.00
2023-09-28T21:29:55.967Z,98791.00
2023-09-28T21:32:22.702Z,98793.00
2023-09-28T21:34:49.278Z,98781.00
2023-09-28T21:37:15.798Z,98793.00
2023-09-28T21:39:42.298Z,98794.00
2023-09-28T21:42:08.862Z,98794.00
2023-09-28T21:44:39.654Z,98794.00
2023-09-28T21:47:06.349Z,98797.00
2023-09-28T21:49:32.848Z,98795.00
2023-09-28T21:51:59.400Z,98795.00
2023-09-28T21:54:27.280Z,98787.00
2023-09-28T21:56:53.927Z,98798.00
2023-09-28T21:59:20.551Z,98794.00
2023-09-28T22:01:48.140Z,98798.00
2023-09-28T22:04:14.741Z,98794.00
2023-09-28T22:06:41.735Z,98795.00
2023-09-28T22:09:08.283Z,98795.00
2023-09-28T22:11:34.809Z,98786.00
2023-09-28T22:14:01.745Z,98788.00
2023-09-28T22:16:28.425Z,98783.00
2023-09-28T22:18:55.593Z,98784.00
2023-09-28T22:21:23.256Z,98781.00
2023-09-28T22:23:50.012Z,98791.00
2023-09-28T22:26:16.772Z,98796.00
2023-09-28T22:28:43.339Z,98791.00
2023-09-28T22:31:09.929Z,98781.00
2023-09-28T22:33:36.487Z,98795.00
2023-09-28T22:36:03.247Z,98791.00
2023-09-28T22:38:29.893Z,98781.00
2023-09-28T22:40:56.709Z,98780.00
2023-09-28T22:43:24.183Z,98785.00
2023-09-28T22:45:50.798Z,98784.00
2023-09-28T22:48:17.456Z,98785.00
2023-09-28T22:50:44.051Z,98788.00
2023-09-28T22:53:10.640Z,98781.00
2023-09-28T22:55:37.092Z,98788.00
2023-09-28T22:58:03.778Z,98786.00
2023-09-28T23:00:30.597Z,98780.00
2023-09-28T23:02:57.237Z,98777.00
2023-09-28T23:05:23.796Z,98783.00
2023-09-28T23:07:50.380Z,98786.00
2023-09-28T23:10:17.691Z,98797.00
2023-09-28T23:12:44.550Z,98786.00
2023-09-28T23:15:15.608Z,98784.00
2023-09-28T23:17:43.175Z,98781.00
2023-09-28T23:20:13.840Z,98784.00
2023-09-28T23:22:42.994Z,98785.00
2023-09-28T23:25:13.355Z,98792.00
2023-09-28T23:27:43.432Z,98785.00
2023-09-28T23:30:18.391Z,98784.00
2023-09-28T23:32:50.806Z,98783.00
2023-09-28T23:35:25.672Z,98786.00
2023-09-28T23:37:53.460Z,98787.00
2023-09-28T23:40:23.710Z,98796.00
2023-09-28T23:42:52.112Z,98787.00
2023-09-28T23:45:20.234Z,98797.00
2023-09-28T23:47:48.856Z,98803.00
2023-09-28T23:50:15.981Z,98800.00
2023-09-28T23:52:44.767Z,98787.00
2023-09-28T23:55:13.026Z,98787.00
2023-09-28T23:57:40.332Z,98799.00
